Time;durP1;ratioP1;P1;durP2;ratioP2;P2;SDS_P1;SDS_P2;PMS_P1;PMS_P2;Temp;Humidity;BMP_temperature;BMP_pressure;BME280_temperature;BME280_humidity;BME280_pressure;Samples;Min_cycle;Max_cycle;Signal;HPM_P1;HPM_P2
2024/01/12 00:00:44;;;;;;;21.38;4.63;;;-0.70;99.90;;;;;;5048852;28;20496;-55
2024/01/12 00:03:10;;;;;;;29.17;5.20;;;-0.60;99.90;;;;;;5043517;28;20399;-61
2024/01/12 00:05:35;;;;;;;21.20;3.80;;;-0.50;99.90;;;;;;5047987;28;20662;-55
2024/01/12 00:08:01;;;;;;;17.17;4.22;;;-0.40;99.90;;;;;;5030540;28;20122;-55
2024/01/12 00:10:27;;;;;;;15.50;4.30;;;-0.30;99.90;;;;;;5042502;28;20058;-57
2024/01/12 00:12:53;;;;;;;31.13;5.55;;;-0.10;99.90;;;;;;5025549;28;20851;-55
2024/01/12 00:15:18;;;;;;;40.63;5.22;;;0.00;99.90;;;;;;5026524;28;20059;-60
2024/01/12 00:17:45;;;;;;;20.33;4.50;;;0.30;99.90;;;;;;5032354;28;20442;-57
2024/01/12 00:20:11;;;;;;;32.25;4.40;;;0.40;99.90;;;;;;5048573;28;20051;-55
2024/01/12 00:22:37;;;;;;;32.72;5.53;;;0.60;99.90;;;;;;5039934;28;20045;-55
2024/01/12 00:25:03;;;;;;;33.70;5.47;;;0.70;99.90;;;;;;5042345;28;20029;-49
2024/01/12 00:27:29;;;;;;;39.17;6.82;;;0.90;99.90;;;;;;5040278;28;20044;-54
2024/01/12 00:29:56;;;;;;;47.30;8.48;;;1.10;99.90;;;;;;5025523;28;20053;-52
2024/01/12 00:32:21;;;;;;;26.25;7.35;;;1.30;99.90;;;;;;5028158;28;20041;-53
2024/01/12 00:34:48;;;;;;;29.83;7.13;;;1.30;99.90;;;;;;5038687;28;20528;-62
2024/01/12 00:37:14;;;;;;;37.55;8.80;;;1.50;99.90;;;;;;5015885;28;20123;-50
2024/01/12 00:39:40;;;;;;;36.03;5.95;;;1.40;99.90;;;;;;5024843;28;20048;-58
2024/01/12 00:42:05;;;;;;;35.75;6.93;;;1.60;99.90;;;;;;5047657;28;20046;-56
2024/01/12 00:44:31;;;;;;;28.60;5.88;;;1.70;99.90;;;;;;5042209;28;20163;-58
2024/01/12 00:46:57;;;;;;;21.80;7.32;;;1.80;99.90;;;;;;5046783;28;20045;-49
2024/01/12 00:49:22;;;;;;;38.30;10.38;;;2.00;99.90;;;;;;5049884;28;20044;-52
2024/01/12 00:51:48;;;;;;;34.20;9.18;;;2.00;99.90;;;;;;5012776;28;20132;-58
2024/01/12 00:54:15;;;;;;;33.33;8.82;;;2.20;99.90;;;;;;5039701;28;20377;-60
2024/01/12 00:56:41;;;;;;;24.30;6.80;;;2.20;99.90;;;;;;5044651;28;20111;-59
2024/01/12 00:59:07;;;;;;;24.48;5.28;;;2.20;99.90;;;;;;5031311;28;20490;-54
2024/01/12 01:01:34;;;;;;;27.30;6.50;;;2.30;99.90;;;;;;5020323;28;20037;-57
2024/01/12 01:04:03;;;;;;;32.58;5.53;;;2.30;99.90;;;;;;5042336;28;20090;-57
2024/01/12 01:06:29;;;;;;;32.65;5.35;;;2.30;99.90;;;;;;5027502;28;20041;-60
2024/01/12 01:08:55;;;;;;;37.42;6.90;;;2.30;99.90;;;;;;5050765;28;20048;-51
2024/01/12 01:11:21;;;;;;;37.65;7.72;;;2.40;99.90;;;;;;5029758;28;20057;-52
2024/01/12 01:13:47;;;;;;;28.25;7.55;;;2.40;99.90;;;;;;5020052;28;20044;-51
2024/01/12 01:16:13;;;;;;;28.60;6.65;;;2.30;99.90;;;;;;5046031;28;20631;-57
2024/01/12 01:18:38;;;;;;;30.42;7.72;;;2.40;99.90;;;;;;5046714;28;20084;-61
2024/01/12 01:21:04;;;;;;;23.42;8.38;;;2.40;99.90;;;;;;5051668;28;20043;-57
2024/01/12 01:23:31;;;;;;;36.70;8.05;;;2.50;99.90;;;;;;5048958;28;20064;-53
2024/01/12 01:25:59;;;;;;;25.58;7.78;;;2.40;99.90;;;;;;5034891;28;20084;-59
2024/01/12 01:28:24;;;;;;;40.78;11.38;;;2.50;99.90;;;;;;5047564;28;20146;-51
2024/01/12 01:30:50;;;;;;;31.90;8.65;;;2.50;99.90;;;;;;5030636;28;20041;-55
2024/01/12 01:33:16;;;;;;;43.03;13.13;;;2.50;99.90;;;;;;5048247;28;20126;-61
2024/01/12 01:35:42;;;;;;;34.58;10.00;;;2.60;99.90;;;;;;5046712;28;20041;-56
2024/01/12 01:38:08;;;;;;;35.33;13.25;;;2.60;99.90;;;;;;5050358;28;20061;-53
2024/01/12 01:40:33;;;;;;;32.60;11.55;;;2.50;99.90;;;;;;5036161;28;20076;-59
2024/01/12 01:43:09;;;;;;;26.65;8.80;;;2.50;99.90;;;;;;5051587;28;20105;-56
2024/01/12 01:45:36;;;;;;;44.97;12.48;;;2.60;99.90;;;;;;5028887;28;20052;-55
2024/01/12 01:48:06;;;;;;;34.00;10.77;;;2.60;99.90;;;;;;5046444;28;20053;-51
2024/01/12 01:50:33;;;;;;;31.20;9.85;;;2.50;99.90;;;;;;5044381;28;20041;-54
2024/01/12 01:52:59;;;;;;;30.20;10.20;;;2.50;99.90;;;;;;5050115;28;20127;-55
2024/01/12 01:55:27;;;;;;;33.65;9.65;;;2.60;99.90;;;;;;5049478;28;20198;-56
2024/01/12 01:57:53;;;;;;;28.67;9.10;;;2.60;99.90;;;;;;5043514;28;20051;-54
2024/01/12 02:00:19;;;;;;;20.48;7.45;;;2.70;99.90;;;;;;5025923;28;20052;-58
2024/01/12 02:02:48;;;;;;;25.13;8.48;;;2.70;99.90;;;;;;5048141;28;20045;-50
2024/01/12 02:05:14;;;;;;;19.92;6.30;;;2.80;99.90;;;;;;5048508;28;20047;-56
2024/01/12 02:07:41;;;;;;;22.55;8.32;;;2.80;99.90;;;;;;5021977;28;20060;-59
2024/01/12 02:10:08;;;;;;;27.90;7.80;;;2.80;99.90;;;;;;5039378;28;20547;-51
2024/01/12 02:12:35;;;;;;;31.17;9.25;;;2.80;99.90;;;;;;5049435;28;20045;-53
2024/01/12 02:15:01;;;;;;;27.95;8.55;;;2.70;99.90;;;;;;5043433;28;20473;-56
2024/01/12 02:17:27;;;;;;;37.35;9.95;;;2.80;99.90;;;;;;5031718;28;20454;-59
2024/01/12 02:20:02;;;;;;;34.10;9.65;;;2.80;99.90;;;;;;5046211;28;20072;-54
2024/01/12 02:22:28;;;;;;;23.25;9.05;;;2.80;99.90;;;;;;5046914;28;20116;-54
2024/01/12 02:24:54;;;;;;;28.50;9.02;;;2.80;99.90;;;;;;5031614;28;20135;-50
2024/01/12 02:27:21;;;;;;;33.30;10.68;;;2.70;99.90;;;;;;5026551;28;20053;-51
2024/01/12 02:29:49;;;;;;;39.42;10.73;;;2.80;99.90;;;;;;5024370;28;20103;-53
2024/01/12 02:32:14;;;;;;;37.17;10.48;;;2.70;99.90;;;;;;5041166;28;20041;-52
2024/01/12 02:34:40;;;;;;;35.25;13.07;;;2.80;99.90;;;;;;5046523;28;20442;-59
2024/01/12 02:37:06;;;;;;;34.08;9.52;;;2.70;99.90;;;;;;5046377;28;20127;-46
2024/01/12 02:39:32;;;;;;;29.33;8.77;;;2.90;99.90;;;;;;5045934;28;20112;-53
2024/01/12 02:41:57;;;;;;;27.92;9.38;;;2.80;99.90;;;;;;5027758;28;20125;-57
2024/01/12 02:44:26;;;;;;;36.60;9.05;;;2.80;99.90;;;;;;5045334;28;20110;-52
2024/01/12 02:46:52;;;;;;;34.58;8.60;;;2.80;99.90;;;;;;5048652;28;20502;-57
2024/01/12 02:49:18;;;;;;;20.42;8.98;;;2.80;99.90;;;;;;5030853;28;20060;-51
2024/01/12 02:51:44;;;;;;;28.73;9.48;;;2.80;99.90;;;;;;5046490;28;20080;-58
2024/01/12 02:54:09;;;;;;;32.15;8.18;;;2.70;99.90;;;;;;5036463;28;20052;-51
2024/01/12 02:56:35;;;;;;;25.90;7.35;;;2.70;99.90;;;;;;5039070;28;20052;-60
2024/01/12 02:59:01;;;;;;;25.77;7.10;;;2.60;99.90;;;;;;5041937;28;20053;-57
2024/01/12 03:01:27;;;;;;;32.10;7.50;;;2.60;99.90;;;;;;5047218;28;20041;-56
2024/01/12 03:03:54;;;;;;;23.08;7.68;;;2.50;99.90;;;;;;5042286;28;20044;-47
2024/01/12 03:06:21;;;;;;;34.63;9.73;;;2.60;99.90;;;;;;5032246;28;20049;-62
2024/01/12 03:08:46;;;;;;;27.67;6.35;;;2.60;99.90;;;;;;5044083;28;20098;-52
2024/01/12 03:11:12;;;;;;;27.48;9.13;;;2.60;99.90;;;;;;5045510;28;20048;-52
2024/01/12 03:13:38;;;;;;;25.17;8.05;;;2.70;99.90;;;;;;5046181;28;20044;-58
2024/01/12 03:16:04;;;;;;;35.20;8.77;;;2.70;99.90;;;;;;5045681;28;20509;-57
2024/01/12 03:18:33;;;;;;;31.40;9.32;;;2.70;99.90;;;;;;5052250;28;20049;-55
2024/01/12 03:20:59;;;;;;;28.63;8.50;;;2.70;99.90;;;;;;5040921;28;20503;-58
2024/01/12 03:23:24;;;;;;;23.05;6.75;;;2.70;99.90;;;;;;5023865;28;20053;-61
2024/01/12 03:25:50;;;;;;;37.03;8.57;;;2.80;99.90;;;;;;5042713;28;20382;-47
2024/01/12 03:28:16;;;;;;;33.80;9.90;;;2.70;99.90;;;;;;5046057;28;20053;-51
2024/01/12 03:30:42;;;;;;;31.20;7.95;;;2.80;99.90;;;;;;5047660;28;20151;-51
2024/01/12 03:33:08;;;;;;;33.55;10.75;;;2.70;99.90;;;;;;5040286;28;20125;-61
2024/01/12 03:35:35;;;;;;;30.55;9.30;;;2.70;99.90;;;;;;5047976;28;20045;-54
2024/01/12 03:38:01;;;;;;;25.20;10.40;;;2.70;99.90;;;;;;5040455;28;20456;-56
2024/01/12 03:40:27;;;;;;;33.90;9.23;;;2.70;99.90;;;;;;5042417;28;20043;-59
2024/01/12 03:42:53;;;;;;;37.95;8.70;;;2.70;99.90;;;;;;5047494;28;20048;-57
2024/01/12 03:45:19;;;;;;;37.47;11.45;;;2.70;99.90;;;;;;5013300;28;20106;-57
2024/01/12 03:47:44;;;;;;;41.03;11.55;;;2.80;99.90;;;;;;5041992;28;20051;-61
2024/01/12 03:50:10;;;;;;;42.83;12.50;;;2.80;99.90;;;;;;5048588;28;20650;-50
2024/01/12 03:52:36;;;;;;;44.92;11.70;;;2.90;99.90;;;;;;5042514;28;20041;-55
2024/01/12 03:55:02;;;;;;;40.70;13.00;;;2.80;99.90;;;;;;5040596;28;20056;-52
2024/01/12 03:57:28;;;;;;;48.03;11.52;;;2.80;99.90;;;;;;5044820;28;20045;-58
2024/01/12 03:59:53;;;;;;;42.47;9.20;;;2.90;99.90;;;;;;5039269;28;20117;-51
2024/01/12 04:02:19;;;;;;;35.10;9.93;;;2.90;99.90;;;;;;5042911;28;20053;-57
2024/01/12 04:04:45;;;;;;;30.85;9.73;;;2.90;99.90;;;;;;5042612;28;20121;-54
2024/01/12 04:07:10;;;;;;;36.25;9.98;;;2.90;99.90;;;;;;5042629;28;20048;-62
2024/01/12 04:09:36;;;;;;;38.95;7.53;;;2.90;99.90;;;;;;5042729;28;20071;-49
2024/01/12 04:12:02;;;;;;;45.65;8.05;;;2.90;99.90;;;;;;5040035;28;20040;-56
2024/01/12 04:14:28;;;;;;;35.85;6.72;;;3.00;99.90;;;;;;5031452;28;20503;-56
2024/01/12 04:16:54;;;;;;;51.20;10.45;;;3.00;99.90;;;;;;5018310;28;20040;-52
2024/01/12 04:19:20;;;;;;;49.20;8.73;;;3.00;99.90;;;;;;5043075;28;20048;-59
2024/01/12 04:21:45;;;;;;;45.67;9.95;;;3.00;99.90;;;;;;5026810;28;20056;-55
2024/01/12 04:24:11;;;;;;;45.92;8.55;;;3.00;99.90;;;;;;5022344;28;20045;-60
2024/01/12 04:26:37;;;;;;;47.25;10.35;;;3.00;99.90;;;;;;5028681;28;20048;-57
2024/01/12 04:29:04;;;;;;;35.72;7.50;;;3.00;99.90;;;;;;5045697;28;20113;-55
2024/01/12 04:31:29;;;;;;;43.60;8.73;;;3.00;99.90;;;;;;5041199;28;20115;-59
2024/01/12 04:33:55;;;;;;;64.75;11.73;;;3.00;99.90;;;;;;5051172;28;20180;-52
2024/01/12 04:36:24;;;;;;;32.92;7.78;;;3.00;99.90;;;;;;5021559;28;20138;-60
2024/01/12 04:38:50;;;;;;;43.50;7.30;;;3.10;99.90;;;;;;5042317;28;20099;-57
2024/01/12 04:41:15;;;;;;;43.10;10.50;;;3.10;99.90;;;;;;5032316;28;20095;-61
2024/01/12 04:43:41;;;;;;;46.35;10.60;;;3.10;99.90;;;;;;5041034;28;20114;-56
2024/01/12 04:46:07;;;;;;;50.80;10.90;;;3.10;99.90;;;;;;5039921;28;20043;-53
2024/01/12 04:48:33;;;;;;;56.03;12.77;;;3.00;99.90;;;;;;5035304;28;20053;-56
2024/01/12 04:50:58;;;;;;;54.40;12.32;;;3.10;99.90;;;;;;5033597;28;20055;-59
2024/01/12 04:53:25;;;;;;;66.75;12.63;;;2.90;99.90;;;;;;5041886;28;20041;-51
2024/01/12 04:55:51;;;;;;;55.47;13.00;;;2.80;99.90;;;;;;5034497;28;20131;-58
2024/01/12 04:58:18;;;;;;;54.00;14.10;;;2.70;99.90;;;;;;5042637;28;20060;-60
2024/01/12 05:00:43;;;;;;;62.42;12.38;;;2.60;99.90;;;;;;5044735;28;20045;-55
2024/01/12 05:03:09;;;;;;;46.78;12.80;;;2.60;99.90;;;;;;5039745;28;20095;-58
2024/01/12 05:05:36;;;;;;;49.33;10.38;;;2.50;99.90;;;;;;5039796;28;20507;-55
2024/01/12 05:08:01;;;;;;;56.97;10.82;;;2.30;99.90;;;;;;5042443;28;20048;-58
2024/01/12 05:10:27;;;;;;;34.05;6.53;;;2.30;99.90;;;;;;5032794;28;20057;-61
2024/01/12 05:12:53;;;;;;;38.22;7.68;;;2.30;99.90;;;;;;5041256;28;20495;-56
2024/01/12 05:15:18;;;;;;;42.85;7.78;;;2.40;99.90;;;;;;5040992;28;20410;-58
2024/01/12 05:17:44;;;;;;;30.08;6.25;;;2.40;99.90;;;;;;5024682;28;20374;-57
2024/01/12 05:20:10;;;;;;;21.17;3.65;;;2.40;99.90;;;;;;5031395;28;20470;-56
2024/01/12 05:22:36;;;;;;;27.13;4.45;;;2.30;99.90;;;;;;5040159;28;20056;-61
2024/01/12 05:25:05;;;;;;;23.85;3.30;;;2.30;99.90;;;;;;5048949;28;20045;-57
2024/01/12 05:27:31;;;;;;;16.83;2.55;;;2.30;99.90;;;;;;5040583;28;20044;-52
2024/01/12 05:29:57;;;;;;;11.93;2.35;;;2.20;99.90;;;;;;5047695;28;20041;-60
2024/01/12 05:32:26;;;;;;;23.95;3.17;;;2.20;99.90;;;;;;5041884;28;20885;-48
2024/01/12 05:34:52;;;;;;;21.48;3.90;;;2.20;99.90;;;;;;5041120;28;20091;-62
2024/01/12 05:37:17;;;;;;;13.13;3.15;;;2.20;99.90;;;;;;5041083;28;20092;-52
2024/01/12 05:39:43;;;;;;;27.38;4.45;;;2.30;99.90;;;;;;5011921;28;20474;-51
2024/01/12 05:42:09;;;;;;;22.35;3.88;;;2.20;99.90;;;;;;5044884;28;20033;-59
2024/01/12 05:44:34;;;;;;;19.55;5.30;;;2.10;99.90;;;;;;5040914;28;20037;-53
2024/01/12 05:47:00;;;;;;;37.78;5.40;;;2.10;99.90;;;;;;5038444;28;20044;-58
2024/01/12 05:49:27;;;;;;;24.27;4.50;;;2.10;99.90;;;;;;5045387;28;20167;-59
2024/01/12 05:51:52;;;;;;;24.08;4.88;;;2.00;99.90;;;;;;5024486;28;20083;-57
2024/01/12 05:54:18;;;;;;;24.55;4.25;;;2.00;99.90;;;;;;5035340;28;20127;-53
2024/01/12 05:56:44;;;;;;;33.38;5.00;;;2.00;99.90;;;;;;5044530;28;20063;-55
2024/01/12 05:59:10;;;;;;;28.45;3.97;;;2.10;99.90;;;;;;5051918;28;20044;-58
2024/01/12 06:01:35;;;;;;;28.77;5.53;;;2.00;99.90;;;;;;5045572;28;20047;-51
2024/01/12 06:04:01;;;;;;;20.45;4.60;;;2.00;99.90;;;;;;5049782;28;20040;-59
2024/01/12 06:06:27;;;;;;;23.92;3.53;;;2.00;99.90;;;;;;5047695;28;20044;-55
2024/01/12 06:08:52;;;;;;;16.85;2.63;;;2.00;99.90;;;;;;5022808;28;20053;-53
2024/01/12 06:11:18;;;;;;;32.53;5.32;;;2.00;99.90;;;;;;5045443;28;20037;-49
2024/01/12 06:13:44;;;;;;;68.15;15.50;;;2.00;99.90;;;;;;5037635;28;20064;-51
2024/01/12 06:16:09;;;;;;;115.13;27.63;;;2.00;99.90;;;;;;5045258;28;20053;-60
2024/01/12 06:18:35;;;;;;;96.60;21.40;;;2.10;99.90;;;;;;5048074;28;20269;-54
2024/01/12 06:21:01;;;;;;;98.30;23.25;;;2.00;99.90;;;;;;5044438;28;20053;-60
2024/01/12 06:23:26;;;;;;;41.67;10.88;;;2.00;99.90;;;;;;5026981;28;20053;-49
2024/01/12 06:25:52;;;;;;;55.90;10.27;;;2.10;99.90;;;;;;5046828;28;20498;-61
2024/01/12 06:28:18;;;;;;;47.60;9.80;;;2.10;99.90;;;;;;5032371;28;20052;-56
2024/01/12 06:30:44;;;;;;;51.15;7.65;;;2.10;99.90;;;;;;5034682;28;20128;-51
2024/01/12 06:33:14;;;;;;;43.80;9.85;;;2.10;99.90;;;;;;5048393;28;20115;-50
2024/01/12 06:35:40;;;;;;;46.17;8.63;;;2.20;99.90;;;;;;5044110;28;20367;-55
2024/01/12 06:38:06;;;;;;;34.85;6.15;;;2.20;99.90;;;;;;5029243;28;20052;-58
2024/01/12 06:40:32;;;;;;;37.42;6.45;;;2.20;99.90;;;;;;5045734;28;20049;-47
2024/01/12 06:42:58;;;;;;;38.20;5.97;;;2.20;99.90;;;;;;5037864;28;21309;-62
2024/01/12 06:45:24;;;;;;;45.25;5.65;;;2.20;99.90;;;;;;5029235;28;20052;-51
2024/01/12 06:47:50;;;;;;;54.00;7.35;;;2.10;99.90;;;;;;5037200;28;20052;-48
2024/01/12 06:50:16;;;;;;;41.83;7.15;;;2.20;99.90;;;;;;5010474;28;20258;-59
2024/01/12 06:52:43;;;;;;;48.92;10.55;;;2.10;99.90;;;;;;5039656;28;20593;-55
2024/01/12 06:55:08;;;;;;;63.47;12.93;;;2.30;99.90;;;;;;5042886;28;20138;-57
2024/01/12 06:57:34;;;;;;;99.78;38.15;;;2.20;99.90;;;;;;5043679;28;20098;-51
2024/01/12 07:00:00;;;;;;;104.22;33.63;;;2.20;99.90;;;;;;5031089;28;20037;-49
2024/01/12 07:02:26;;;;;;;98.53;26.35;;;2.30;99.90;;;;;;5020011;28;20176;-62
2024/01/12 07:04:51;;;;;;;118.82;40.55;;;2.20;99.90;;;;;;5040578;28;20051;-60
2024/01/12 07:07:17;;;;;;;125.28;39.05;;;2.30;99.90;;;;;;5046159;28;20052;-59
2024/01/12 07:09:44;;;;;;;142.88;48.67;;;2.40;99.90;;;;;;5042019;28;20518;-49
2024/01/12 07:12:11;;;;;;;104.63;35.75;;;2.30;99.90;;;;;;5033236;28;20045;-57
2024/01/12 07:14:36;;;;;;;111.65;33.50;;;2.40;99.90;;;;;;5027975;28;20143;-56
2024/01/12 07:17:02;;;;;;;97.43;31.38;;;2.50;99.90;;;;;;5033788;28;20055;-53
2024/01/12 07:19:28;;;;;;;97.10;24.48;;;2.40;99.90;;;;;;5047636;28;20593;-55
2024/01/12 07:21:54;;;;;;;71.80;22.90;;;2.60;99.90;;;;;;5043533;28;20033;-56
2024/01/12 07:24:19;;;;;;;89.75;16.60;;;2.50;99.90;;;;;;5052135;28;20051;-53
2024/01/12 07:26:45;;;;;;;75.35;19.48;;;2.60;99.90;;;;;;5031110;28;20045;-52
2024/01/12 07:29:11;;;;;;;74.68;17.90;;;2.60;99.90;;;;;;5046568;28;20098;-58
2024/01/12 07:31:37;;;;;;;57.58;14.68;;;2.60;99.90;;;;;;5009659;28;20804;-47
2024/01/12 07:34:04;;;;;;;57.25;8.70;;;2.60;99.90;;;;;;5043977;28;20076;-55
2024/01/12 07:36:30;;;;;;;57.58;7.40;;;2.60;99.90;;;;;;5043968;28;20048;-53
2024/01/12 07:38:57;;;;;;;38.60;6.32;;;2.70;99.90;;;;;;5042709;28;20107;-60
2024/01/12 07:41:23;;;;;;;47.65;5.40;;;2.70;99.90;;;;;;5042087;28;20056;-56
2024/01/12 07:43:48;;;;;;;58.35;5.35;;;2.90;99.90;;;;;;5028598;28;20391;-49
2024/01/12 07:46:18;;;;;;;35.10;4.35;;;2.80;99.90;;;;;;5045474;28;20033;-55
2024/01/12 07:48:47;;;;;;;45.17;4.57;;;2.90;99.90;;;;;;5045647;28;20072;-54
2024/01/12 07:51:13;;;;;;;41.25;4.88;;;3.00;99.90;;;;;;5007256;28;20569;-59
2024/01/12 07:53:38;;;;;;;37.45;4.57;;;3.00;99.90;;;;;;5027113;28;20040;-54
2024/01/12 07:56:04;;;;;;;38.63;3.75;;;3.10;99.90;;;;;;5042866;28;20039;-59
2024/01/12 07:58:30;;;;;;;40.97;4.45;;;3.10;99.90;;;;;;5042523;28;20066;-56
2024/01/12 08:00:56;;;;;;;55.13;11.15;;;3.10;99.90;;;;;;5022677;28;20585;-59
2024/01/12 08:03:22;;;;;;;61.15;15.30;;;3.20;99.90;;;;;;5035648;28;20502;-54
2024/01/12 08:05:47;;;;;;;57.08;12.52;;;3.20;99.90;;;;;;5043548;28;20037;-57
2024/01/12 08:08:13;;;;;;;70.65;12.57;;;3.10;99.90;;;;;;5043474;28;20898;-56
2024/01/12 08:10:39;;;;;;;68.80;16.30;;;3.10;99.90;;;;;;5007590;28;20045;-56
2024/01/12 08:13:04;;;;;;;56.83;9.80;;;3.20;99.90;;;;;;5044030;28;20056;-60
2024/01/12 08:15:30;;;;;;;59.53;9.48;;;3.10;99.90;;;;;;5044017;28;20055;-54
2024/01/12 08:17:56;;;;;;;64.53;11.23;;;3.10;99.90;;;;;;5047612;28;20150;-61
2024/01/12 08:20:22;;;;;;;61.97;9.82;;;3.10;99.90;;;;;;5038288;28;20537;-57
2024/01/12 08:22:47;;;;;;;69.70;8.95;;;3.10;99.90;;;;;;5043186;28;20100;-57
2024/01/12 08:25:13;;;;;;;52.25;8.32;;;3.20;99.90;;;;;;5029565;28;20213;-57
2024/01/12 08:27:39;;;;;;;69.07;7.95;;;3.20;99.90;;;;;;5044444;28;20504;-55
2024/01/12 08:30:09;;;;;;;55.72;7.32;;;3.20;99.90;;;;;;5044619;28;20033;-48
2024/01/12 08:32:35;;;;;;;40.08;5.50;;;3.20;99.90;;;;;;5043608;28;20131;-53
2024/01/12 08:35:01;;;;;;;38.80;4.43;;;3.20;99.90;;;;;;5044104;28;20149;-55
2024/01/12 08:37:27;;;;;;;42.28;4.57;;;3.30;99.90;;;;;;5043297;28;20503;-61
2024/01/12 08:39:52;;;;;;;38.88;4.65;;;3.30;99.90;;;;;;5022191;28;20447;-60
2024/01/12 08:42:18;;;;;;;39.00;3.85;;;3.40;99.90;;;;;;5045216;28;20134;-53
2024/01/12 08:44:44;;;;;;;38.92;4.47;;;3.50;99.90;;;;;;5026176;28;20489;-59
2024/01/12 08:47:10;;;;;;;36.25;3.72;;;3.60;99.90;;;;;;5031420;28;20102;-62
2024/01/12 08:49:35;;;;;;;40.17;4.75;;;3.60;99.90;;;;;;5028518;28;20053;-59
2024/01/12 08:52:01;;;;;;;36.88;3.83;;;3.70;99.90;;;;;;5042905;28;20888;-55
2024/01/12 08:54:27;;;;;;;42.63;4.15;;;3.80;99.90;;;;;;5034544;28;20041;-56
2024/01/12 08:56:53;;;;;;;45.13;4.10;;;3.80;99.90;;;;;;5020270;28;20792;-59
2024/01/12 08:59:20;;;;;;;50.83;4.28;;;3.90;99.90;;;;;;5043129;28;20553;-58
2024/01/12 09:01:46;;;;;;;60.67;4.78;;;4.10;99.90;;;;;;5039054;28;20041;-58
2024/01/12 09:04:12;;;;;;;54.65;4.88;;;4.10;99.90;;;;;;5006344;28;20052;-55
2024/01/12 09:06:37;;;;;;;36.67;3.38;;;4.20;99.90;;;;;;5021723;28;20049;-58
2024/01/12 09:09:04;;;;;;;47.95;3.85;;;4.20;99.90;;;;;;5041853;28;20049;-58
2024/01/12 09:11:29;;;;;;;36.35;3.80;;;4.20;99.90;;;;;;5031496;28;20044;-52
2024/01/12 09:13:55;;;;;;;38.22;3.78;;;4.30;99.90;;;;;;5024464;28;20044;-59
2024/01/12 09:16:21;;;;;;;42.63;3.90;;;4.30;99.90;;;;;;5024422;28;20068;-55
2024/01/12 09:18:48;;;;;;;32.95;3.88;;;4.30;99.90;;;;;;5040914;28;20127;-56
2024/01/12 09:21:15;;;;;;;32.05;3.92;;;4.30;99.90;;;;;;5040862;28;20041;-53
2024/01/12 09:23:45;;;;;;;34.80;4.20;;;4.20;99.90;;;;;;5025461;28;20053;-51
2024/01/12 09:26:11;;;;;;;45.45;3.83;;;4.20;99.90;;;;;;5045581;28;20073;-58
2024/01/12 09:28:38;;;;;;;31.20;3.33;;;4.20;99.90;;;;;;5038902;28;20494;-50
2024/01/12 09:31:08;;;;;;;29.15;3.10;;;4.20;99.90;;;;;;5050006;28;20041;-57
2024/01/12 09:33:34;;;;;;;21.90;2.67;;;4.30;99.90;;;;;;5034997;28;20041;-60
2024/01/12 09:36:02;;;;;;;23.20;2.40;;;4.30;99.90;;;;;;5036087;28;20116;-57
2024/01/12 09:38:28;;;;;;;27.77;3.08;;;4.30;99.90;;;;;;5048907;28;20045;-52
2024/01/12 09:40:54;;;;;;;33.22;2.97;;;4.30;99.90;;;;;;5048581;28;20518;-55
2024/01/12 09:43:21;;;;;;;37.05;3.45;;;4.40;99.90;;;;;;5016834;28;20064;-51
2024/01/12 09:45:50;;;;;;;35.80;3.28;;;4.40;99.90;;;;;;5033351;28;20052;-54
2024/01/12 09:48:17;;;;;;;36.22;3.75;;;4.40;99.90;;;;;;5046565;28;20665;-56
2024/01/12 09:50:43;;;;;;;27.17;4.70;;;4.50;99.90;;;;;;5050456;28;20305;-51
2024/01/12 09:53:10;;;;;;;38.03;3.35;;;4.50;99.90;;;;;;5024782;28;20131;-59
2024/01/12 09:55:35;;;;;;;33.75;3.85;;;4.50;99.90;;;;;;5034990;28;20648;-57
2024/01/12 09:58:02;;;;;;;30.38;2.85;;;4.60;99.90;;;;;;5034385;28;20085;-54
2024/01/12 10:00:31;;;;;;;33.58;3.25;;;4.60;99.90;;;;;;5051870;28;20131;-58
2024/01/12 10:02:58;;;;;;;32.40;3.65;;;4.60;99.90;;;;;;5047743;28;20541;-55
2024/01/12 10:05:25;;;;;;;29.77;3.53;;;4.70;99.90;;;;;;5049305;28;20077;-55
2024/01/12 10:07:50;;;;;;;28.30;3.03;;;4.70;99.90;;;;;;5050180;28;20047;-57
2024/01/12 10:10:16;;;;;;;26.33;4.03;;;4.70;99.90;;;;;;5027500;28;20053;-57
2024/01/12 10:12:42;;;;;;;25.80;3.75;;;4.70;99.90;;;;;;5047669;28;20139;-58
2024/01/12 10:15:09;;;;;;;39.85;4.13;;;4.70;99.90;;;;;;5048104;28;20040;-58
2024/01/12 10:17:35;;;;;;;37.80;3.95;;;4.70;99.90;;;;;;5048585;28;20053;-59
2024/01/12 10:20:03;;;;;;;29.50;3.45;;;4.60;99.90;;;;;;5046610;28;20036;-61
2024/01/12 10:22:30;;;;;;;39.67;3.92;;;4.60;99.90;;;;;;5031115;28;20072;-62
2024/01/12 10:25:05;;;;;;;33.80;3.85;;;4.60;99.90;;;;;;5047429;28;20393;-50
2024/01/12 10:27:31;;;;;;;39.78;3.42;;;4.60;99.90;;;;;;5047594;28;20109;-50
2024/01/12 10:29:57;;;;;;;54.53;4.95;;;4.60;99.90;;;;;;5031641;28;20060;-59
2024/01/12 10:32:26;;;;;;;62.63;5.10;;;4.60;99.90;;;;;;5046403;28;20059;-61
2024/01/12 10:34:53;;;;;;;49.78;5.40;;;4.60;99.90;;;;;;5045772;28;20048;-60
2024/01/12 10:37:20;;;;;;;53.05;5.57;;;4.60;99.90;;;;;;5040288;28;20146;-53
2024/01/12 10:39:47;;;;;;;51.53;5.55;;;4.60;99.90;;;;;;5047571;28;20036;-51
2024/01/12 10:42:14;;;;;;;58.28;5.07;;;4.60;99.90;;;;;;5032654;28;20049;-54
2024/01/12 10:44:41;;;;;;;54.17;5.03;;;4.50;99.90;;;;;;5015709;28;20380;-58
2024/01/12 10:47:18;;;;;;;38.53;4.35;;;4.60;99.90;;;;;;5028992;28;20406;-54
2024/01/12 10:50:04;;;;;;;47.33;5.18;;;4.60;99.90;;;;;;5033630;28;20508;-60
2024/01/12 10:53:01;;;;;;;46.13;5.20;;;4.50;99.90;;;;;;5036281;28;20060;-54
2024/01/12 10:55:34;;;;;;;36.38;4.35;;;4.50;99.90;;;;;;5033258;28;20529;-56
2024/01/12 10:58:02;;;;;;;43.67;3.88;;;4.60;99.90;;;;;;5032243;28;20056;-61
2024/01/12 11:00:32;;;;;;;48.70;5.47;;;4.60;99.90;;;;;;5035667;28;20496;-58
2024/01/12 11:03:02;;;;;;;48.42;4.63;;;4.70;99.90;;;;;;5033184;28;20126;-57
2024/01/12 11:05:29;;;;;;;62.15;5.10;;;4.70;99.90;;;;;;5034636;28;20578;-54
2024/01/12 11:07:59;;;;;;;53.70;5.85;;;4.80;99.90;;;;;;5047315;28;20052;-56
2024/01/12 11:10:27;;;;;;;51.65;5.78;;;4.80;99.90;;;;;;5031685;28;20051;-58
2024/01/12 11:12:54;;;;;;;43.85;4.82;;;4.80;99.90;;;;;;5051936;28;20076;-61
2024/01/12 11:15:21;;;;;;;47.60;5.50;;;4.80;99.90;;;;;;5041842;28;20044;-62
2024/01/12 11:17:48;;;;;;;48.95;5.45;;;4.80;99.90;;;;;;5049690;28;20057;-58
2024/01/12 11:20:19;;;;;;;46.97;4.35;;;4.90;99.90;;;;;;5046863;28;20134;-48
2024/01/12 11:22:47;;;;;;;52.00;5.70;;;4.90;99.90;;;;;;5045125;28;20051;-56
2024/01/12 11:25:14;;;;;;;45.75;5.18;;;5.00;99.90;;;;;;5041136;28;20045;-55
2024/01/12 11:27:42;;;;;;;51.75;5.75;;;5.10;99.90;;;;;;5040574;28;20411;-60
2024/01/12 11:30:10;;;;;;;49.25;5.50;;;5.10;99.90;;;;;;5027419;28;20059;-54
2024/01/12 11:32:37;;;;;;;53.95;5.82;;;5.10;99.90;;;;;;5038741;28;20045;-54
2024/01/12 11:35:11;;;;;;;49.30;5.60;;;5.20;99.90;;;;;;5043128;28;20052;-56
2024/01/12 11:37:37;;;;;;;58.53;4.97;;;5.20;99.90;;;;;;5038342;28;20055;-57
2024/01/12 11:40:11;;;;;;;57.15;5.45;;;5.20;99.90;;;;;;5042209;28;20512;-52
2024/01/12 11:42:42;;;;;;;43.95;5.30;;;5.30;99.90;;;;;;5041397;28;20105;-55
2024/01/12 11:45:10;;;;;;;;;;;5.30;99.90;;;;;;5043742;28;20041;-57
2024/01/12 11:47:38;;;;;;;47.00;4.78;;;5.20;99.90;;;;;;5044779;28;20283;-56
2024/01/12 11:50:04;;;;;;;57.78;5.43;;;5.30;99.90;;;;;;5025398;28;20053;-54
2024/01/12 11:52:30;;;;;;;113.38;45.88;;;5.30;99.90;;;;;;5045981;28;20049;-58
2024/01/12 11:54:56;;;;;;;99.22;33.88;;;5.30;99.90;;;;;;5017771;28;20051;-58
2024/01/12 11:57:26;;;;;;;78.28;17.63;;;5.20;99.90;;;;;;5046456;28;20501;-52
2024/01/12 11:59:55;;;;;;;70.72;22.42;;;5.10;99.90;;;;;;5028604;28;20049;-54
2024/01/12 12:02:24;;;;;;;53.22;10.85;;;5.00;99.90;;;;;;5030257;28;20389;-60
2024/01/12 12:04:54;;;;;;;51.88;7.00;;;4.90;99.90;;;;;;5045150;28;20044;-57
2024/01/12 12:07:25;;;;;;;43.13;4.97;;;5.00;99.90;;;;;;5046325;28;20461;-53
2024/01/12 12:09:51;;;;;;;54.80;6.45;;;5.00;99.90;;;;;;5042902;28;20487;-54
2024/01/12 12:12:17;;;;;;;49.97;5.88;;;5.00;99.90;;;;;;5041751;28;20049;-58
2024/01/12 12:15:06;;;;;;;49.33;7.22;;;5.10;99.90;;;;;;5044017;28;20063;-57
2024/01/12 12:17:36;;;;;;;36.47;4.88;;;5.10;99.90;;;;;;5042466;28;20121;-49
2024/01/12 12:20:03;;;;;;;;;;;5.00;99.90;;;;;;5027255;28;20486;-58
2024/01/12 12:22:30;;;;;;;40.75;5.00;;;5.10;99.90;;;;;;5048630;28;19928;-61
2024/01/12 12:24:55;;;;;;;37.38;3.70;;;5.10;99.90;;;;;;5044671;28;20051;-57
2024/01/12 12:27:22;;;;;;;37.67;4.05;;;5.10;99.90;;;;;;5043848;28;20437;-59
2024/01/12 12:29:50;;;;;;;47.90;4.75;;;5.10;99.90;;;;;;5039376;28;20080;-58
2024/01/12 12:32:16;;;;;;;41.78;4.85;;;5.10;99.90;;;;;;5042266;28;20052;-54
2024/01/12 12:34:45;;;;;;;42.22;4.82;;;5.10;99.90;;;;;;5035027;28;20052;-55
2024/01/12 12:37:15;;;;;;;46.75;4.85;;;5.10;99.90;;;;;;5040959;28;20068;-50
2024/01/12 12:39:42;;;;;;;40.63;5.13;;;5.10;99.90;;;;;;5039686;28;20040;-56
2024/01/12 12:42:11;;;;;;;49.78;6.38;;;5.10;99.90;;;;;;5040321;28;20068;-57